createdAt,value
2018-02-10T13:40:06.294Z,56.60
2018-02-10T13:42:35.900Z,56.60
2018-02-10T13:45:05.200Z,56.50
2018-02-10T13:47:35.418Z,56.60
2018-02-10T13:50:03.806Z,57.20
2018-02-10T13:52:37.408Z,56.50
2018-02-10T13:55:06.703Z,57.20
2018-02-10T13:57:36.007Z,56.60
2018-02-10T14:00:06.249Z,56.60
2018-02-10T14:02:34.810Z,56.50
2018-02-10T14:05:04.832Z,56.60
2018-02-10T14:07:34.436Z,56.60
2018-02-10T14:10:06.504Z,56.50
2018-02-10T14:12:37.077Z,56.60
2018-02-10T14:15:08.178Z,56.70
2018-02-10T14:17:38.708Z,56.70
2018-02-10T14:20:08.774Z,56.60
2018-02-10T14:22:36.081Z,56.60
2018-02-10T14:25:05.376Z,56.70
2018-02-10T14:27:35.905Z,56.70
2018-02-10T14:30:05.514Z,56.80
2018-02-10T14:32:35.121Z,56.80
2018-02-10T14:35:02.889Z,56.90
2018-02-10T14:37:35.256Z,57.20
2018-02-10T14:40:04.866Z,57.20
2018-02-10T14:42:32.636Z,57.40
2018-02-10T14:45:05.430Z,57.20
2018-02-10T14:47:34.984Z,57.30
2018-02-10T14:50:04.635Z,57.20
2018-02-10T14:52:32.103Z,57.20
2018-02-10T14:55:01.287Z,57.20
2018-02-10T14:57:30.584Z,57.20
2018-02-10T14:59:59.268Z,57.20
2018-02-10T15:02:29.801Z,57.20
2018-02-10T15:05:00.330Z,57.20
2018-02-10T15:07:30.857Z,57.20
2018-02-10T15:10:03.537Z,57.20
2018-02-10T15:12:33.763Z,57.20
2018-02-10T15:15:03.982Z,57.20
2018-02-10T15:17:33.592Z,57.10
2018-02-10T15:20:01.661Z,57.10
2018-02-10T15:22:31.269Z,57.10
2018-02-10T15:25:00.875Z,57.10
2018-02-10T15:27:30.179Z,57.10
2018-02-10T15:30:01.013Z,57.10
2018-02-10T15:32:30.977Z,57.10
2018-02-10T15:34:59.922Z,57.10
2018-02-10T15:37:29.531Z,57.10
2018-02-10T15:39:59.628Z,57.10
2018-02-10T15:42:29.669Z,57.10
2018-02-10T15:44:59.786Z,57.10
2018-02-10T15:47:31.309Z,57.10
2018-02-10T15:50:03.404Z,57.10
2018-02-10T15:52:33.021Z,57.10
2018-02-10T15:55:04.462Z,57.10
2018-02-10T15:57:35.304Z,57.10
2018-02-10T16:00:03.681Z,57.10
2018-02-10T16:02:31.676Z,57.10
2018-02-10T16:05:01.668Z,57.10
2018-02-10T16:07:31.275Z,57.00
2018-02-10T16:10:00.880Z,57.00
2018-02-10T16:12:30.492Z,57.10
2018-02-10T16:14:59.792Z,57.10
2018-02-10T16:17:30.934Z,57.10
2018-02-10T16:20:00.557Z,57.10
2018-02-10T16:22:28.923Z,57.00
2018-02-10T16:25:01.678Z,57.10
2018-02-10T16:27:31.230Z,57.00
2018-02-10T16:30:01.434Z,57.00
2018-02-10T16:32:29.810Z,57.00
2018-02-10T16:35:01.570Z,57.00
2018-02-10T16:37:30.256Z,57.00
2018-02-10T16:40:00.784Z,57.00
2018-02-10T16:42:32.546Z,57.00
2018-02-10T16:45:00.614Z,57.00
2018-02-10T16:47:30.678Z,57.00
2018-02-10T16:50:00.748Z,57.00
2018-02-10T16:52:31.279Z,57.00
2018-02-10T16:55:01.809Z,57.00
2018-02-10T16:57:32.045Z,57.00
2018-02-10T17:00:01.944Z,57.00
2018-02-10T17:02:31.555Z,57.00
2018-02-10T17:05:01.162Z,57.00
2018-02-10T17:07:30.769Z,57.00
2018-02-10T17:10:00.688Z,57.00
2018-02-10T17:12:31.215Z,57.00
2018-02-10T17:15:02.054Z,57.00
2018-02-10T17:17:34.533Z,57.00
2018-02-10T17:20:02.496Z,57.00
2018-02-10T17:22:33.022Z,57.00
2018-02-10T17:25:02.630Z,57.00
2018-02-10T17:27:33.158Z,57.00
2018-02-10T17:30:03.689Z,57.00
2018-02-10T17:32:32.376Z,57.00
2018-02-10T17:35:02.602Z,57.00
2018-02-10T17:37:33.433Z,57.00
2018-02-10T17:40:03.043Z,57.00
2018-02-10T17:42:30.811Z,57.00
2018-02-10T17:45:03.179Z,57.00
2018-02-10T17:47:32.787Z,57.00
2018-02-10T17:50:02.704Z,56.90
2018-02-10T17:52:31.085Z,57.00
2018-02-10T17:55:00.883Z,56.90
2018-02-10T17:57:29.989Z,56.90
2018-02-10T18:02:31.559Z,57.00
2018-02-10T18:05:01.581Z,56.90
2018-02-10T18:07:31.186Z,56.90
2018-02-10T18:10:01.713Z,56.90
2018-02-10T18:12:30.834Z,56.90
2018-02-10T18:15:00.377Z,56.90
2018-02-10T18:17:30.848Z,56.90
2018-02-10T18:20:01.068Z,56.90
2018-02-10T18:22:33.445Z,56.90
2018-02-10T18:25:05.507Z,56.90
2018-02-10T18:27:36.041Z,57.50
2018-02-10T18:30:08.782Z,56.90
2018-02-10T18:32:39.391Z,56.90
2018-02-10T18:35:08.852Z,56.90
2018-02-10T18:37:39.994Z,56.90
2018-02-10T18:40:10.525Z,56.90
2018-02-10T18:42:41.055Z,56.90
2018-02-10T18:45:11.151Z,56.90
2018-02-10T18:47:41.500Z,56.90
2018-02-10T18:50:11.720Z,56.90
2018-02-10T18:52:42.832Z,56.90
2018-02-10T18:55:11.858Z,56.80
2018-02-10T18:57:43.617Z,56.80
2018-02-10T19:00:11.995Z,56.90
2018-02-10T19:02:42.525Z,56.90
2018-02-10T19:05:14.659Z,56.80
2018-02-10T19:07:44.814Z,56.90
2018-02-10T19:10:12.584Z,56.80
2018-02-10T19:12:46.350Z,56.90
2018-02-10T19:15:16.400Z,56.80
2018-02-10T19:17:46.009Z,56.80
2018-02-10T19:20:13.779Z,56.80
2018-02-10T19:22:46.146Z,56.80
2018-02-10T19:25:14.133Z,56.80
2018-02-10T19:27:43.210Z,56.80
2018-02-10T19:30:13.737Z,56.80
2018-02-10T19:32:44.267Z,56.80
2018-02-10T19:35:13.915Z,56.80
2018-02-10T19:37:43.483Z,56.80
2018-02-10T19:40:14.012Z,56.80
2018-02-10T19:42:43.627Z,56.80
2018-02-10T19:45:14.151Z,56.80
2018-02-10T19:47:44.680Z,56.80
2018-02-10T19:50:15.210Z,56.80
2018-02-10T19:52:44.819Z,56.80
2018-02-10T19:55:12.579Z,56.80
2018-02-10T19:57:41.272Z,56.80
2018-02-10T20:00:13.999Z,56.80
2018-02-10T20:02:44.169Z,56.80
2018-02-10T20:05:11.628Z,56.80
2018-02-10T20:07:41.238Z,56.80
2018-02-10T20:10:10.842Z,56.80
2018-02-10T20:12:41.372Z,56.80
2018-02-10T20:15:10.980Z,56.80
2018-02-10T20:17:41.507Z,56.80
2018-02-10T20:20:10.808Z,56.80
2018-02-10T20:22:41.030Z,56.80
2018-02-10T20:25:10.616Z,56.80
2018-02-10T20:27:42.170Z,56.80
2018-02-10T20:30:13.234Z,56.80
2018-02-10T20:32:42.228Z,56.80
2018-02-10T20:35:12.876Z,56.80
2018-02-10T20:37:42.977Z,56.70
2018-02-10T20:40:12.586Z,56.70
2018-02-10T20:42:41.887Z,56.70
2018-02-10T20:45:11.800Z,56.80
2018-02-10T20:47:40.184Z,56.80
2018-02-10T20:50:11.017Z,56.80
2018-02-10T20:52:40.316Z,56.80
2018-02-10T20:55:09.926Z,56.80
2018-02-10T20:57:37.691Z,56.70
2018-02-10T21:00:07.915Z,57.30
2018-02-10T21:02:39.367Z,56.80
2018-02-10T21:05:09.276Z,56.70
2018-02-10T21:07:39.169Z,56.80
2018-02-10T21:10:09.863Z,56.70
2018-02-10T21:12:38.100Z,56.70
2018-02-10T21:15:07.399Z,56.80
2018-02-10T21:17:37.931Z,56.80
2018-02-10T21:20:07.846Z,56.70
2018-02-10T21:22:36.838Z,56.70
2018-02-10T21:25:05.523Z,56.70
2018-02-10T21:27:35.132Z,56.80
2018-02-10T21:30:04.741Z,56.70
2018-02-10T21:32:35.271Z,56.70
2018-02-10T21:35:05.800Z,56.70
2018-02-10T21:37:35.411Z,56.70
2018-02-10T21:40:05.016Z,56.70
2018-02-10T21:42:34.622Z,56.70
2018-02-10T21:45:02.605Z,56.70
2018-02-10T21:47:32.653Z,56.70
2018-02-10T21:50:02.219Z,56.70
2018-02-10T21:52:32.747Z,56.70
2018-02-10T21:55:02.856Z,56.60
2018-02-10T21:57:31.441Z,56.70
2018-02-10T22:00:02.494Z,56.70
2018-02-10T22:02:32.097Z,56.70
2018-02-10T22:04:59.865Z,56.60
2018-02-10T22:07:29.169Z,56.70
2018-02-10T22:09:58.773Z,56.70
2018-02-10T22:12:26.538Z,56.70
2018-02-10T22:14:56.762Z,56.70
2018-02-10T22:17:27.288Z,56.60
2018-02-10T22:19:56.898Z,56.60
2018-02-10T22:22:26.503Z,56.60
2018-02-10T22:24:55.524Z,56.60
2018-02-10T22:27:23.886Z,56.60
2018-02-10T22:29:55.327Z,56.60
2018-02-10T22:32:23.709Z,56.60
2018-02-10T22:34:54.238Z,56.70
2018-02-10T22:37:23.844Z,56.60
2018-02-10T22:39:53.756Z,56.60
2018-02-10T22:42:26.748Z,56.60
2018-02-10T22:44:58.502Z,56.60
2018-02-10T22:47:29.959Z,56.60
2018-02-10T22:49:59.559Z,56.60
2018-02-10T22:52:29.170Z,56.60
2018-02-10T22:54:59.705Z,56.60
2018-02-10T22:57:29.310Z,56.60
2018-02-10T22:59:58.912Z,56.60
2018-02-10T23:02:29.441Z,56.60
2018-02-10T23:04:57.825Z,56.60
2018-02-10T23:07:26.999Z,56.60
2018-02-10T23:09:56.116Z,56.60
2018-02-10T23:12:26.651Z,56.60
2018-02-10T23:14:56.252Z,56.70
2018-02-10T23:17:26.205Z,56.70
2018-02-10T23:19:54.548Z,56.70
2018-02-10T23:22:26.316Z,56.60
2018-02-10T23:24:54.683Z,56.60
2018-02-10T23:27:24.907Z,56.60
2018-02-10T23:29:55.437Z,56.60
2018-02-10T23:32:25.044Z,56.60
2018-02-10T23:34:54.650Z,56.60
2018-02-10T23:37:26.104Z,56.60
2018-02-10T23:39:55.714Z,56.60
2018-02-10T23:42:26.240Z,56.60
2018-02-10T23:44:57.998Z,56.60
2018-02-10T23:47:26.378Z,56.60
2018-02-10T23:49:56.910Z,56.60
2018-02-10T23:52:26.519Z,56.60
2018-02-10T23:54:57.047Z,56.70
2018-02-10T23:57:27.572Z,56.60
2018-02-10T23:59:59.692Z,56.60
